sensor_id;sensor_type;location;lat;lon;timestamp;P1;durP1;ratioP1;P2;durP2;ratioP2
3916;SDS011;1973;50.518;7.318;2023-05-17T00:01:44;6.83;;;2.20;;
3916;SDS011;1973;50.518;7.318;2023-05-17T00:04:10;5.07;;;1.73;;
3916;SDS011;1973;50.518;7.318;2023-05-17T00:06:37;4.70;;;2.17;;
3916;SDS011;1973;50.518;7.318;2023-05-17T00:09:03;8.13;;;2.33;;
3916;SDS011;1973;50.518;7.318;2023-05-17T00:11:30;4.53;;;2.13;;
3916;SDS011;1973;50.518;7.318;2023-05-17T00:13:56;5.43;;;2.47;;
3916;SDS011;1973;50.518;7.318;2023-05-17T00:16:23;4.83;;;2.10;;
3916;SDS011;1973;50.518;7.318;2023-05-17T00:18:49;4.60;;;2.10;;
3916;SDS011;1973;50.518;7.318;2023-05-17T00:21:16;4.20;;;2.20;;
3916;SDS011;1973;50.518;7.318;2023-05-17T00:23:43;4.20;;;1.80;;
3916;SDS011;1973;50.518;7.318;2023-05-17T00:26:09;2.83;;;1.83;;
3916;SDS011;1973;50.518;7.318;2023-05-17T00:28:36;6.93;;;2.23;;
3916;SDS011;1973;50.518;7.318;2023-05-17T00:31:02;4.63;;;2.00;;
3916;SDS011;1973;50.518;7.318;2023-05-17T00:33:29;6.67;;;1.90;;
3916;SDS011;1973;50.518;7.318;2023-05-17T00:35:55;6.87;;;3.10;;
3916;SDS011;1973;50.518;7.318;2023-05-17T00:38:22;10.23;;;3.20;;
3916;SDS011;1973;50.518;7.318;2023-05-17T00:40:48;5.30;;;2.10;;
3916;SDS011;1973;50.518;7.318;2023-05-17T00:43:15;9.30;;;2.10;;
3916;SDS011;1973;50.518;7.318;2023-05-17T00:45:42;6.63;;;2.53;;
3916;SDS011;1973;50.518;7.318;2023-05-17T00:48:08;5.20;;;1.97;;
3916;SDS011;1973;50.518;7.318;2023-05-17T00:50:35;10.97;;;2.00;;
3916;SDS011;1973;50.518;7.318;2023-05-17T00:53:01;5.13;;;1.60;;
3916;SDS011;1973;50.518;7.318;2023-05-17T00:55:28;13.67;;;2.20;;
3916;SDS011;1973;50.518;7.318;2023-05-17T00:57:55;4.70;;;1.60;;
3916;SDS011;1973;50.518;7.318;2023-05-17T01:00:22;4.07;;;1.80;;
3916;SDS011;1973;50.518;7.318;2023-05-17T01:02:49;4.47;;;1.80;;
3916;SDS011;1973;50.518;7.318;2023-05-17T01:05:16;4.20;;;1.83;;
3916;SDS011;1973;50.518;7.318;2023-05-17T01:07:42;5.33;;;2.00;;
3916;SDS011;1973;50.518;7.318;2023-05-17T01:10:09;4.90;;;1.90;;
3916;SDS011;1973;50.518;7.318;2023-05-17T01:12:44;9.17;;;1.90;;
3916;SDS011;1973;50.518;7.318;2023-05-17T01:15:29;5.67;;;2.07;;
3916;SDS011;1973;50.518;7.318;2023-05-17T01:18:00;5.20;;;2.00;;
3916;SDS011;1973;50.518;7.318;2023-05-17T01:20:46;3.87;;;1.83;;
3916;SDS011;1973;50.518;7.318;2023-05-17T01:26:15;6.10;;;1.90;;
3916;SDS011;1973;50.518;7.318;2023-05-17T01:28:45;4.60;;;2.27;;
3916;SDS011;1973;50.518;7.318;2023-05-17T01:31:17;3.70;;;2.47;;
3916;SDS011;1973;50.518;7.318;2023-05-17T01:33:43;3.63;;;1.70;;
3916;SDS011;1973;50.518;7.318;2023-05-17T01:36:10;4.90;;;2.30;;
3916;SDS011;1973;50.518;7.318;2023-05-17T01:38:37;5.43;;;2.33;;
3916;SDS011;1973;50.518;7.318;2023-05-17T01:41:11;3.27;;;1.90;;
3916;SDS011;1973;50.518;7.318;2023-05-17T01:46:30;4.07;;;2.07;;
3916;SDS011;1973;50.518;7.318;2023-05-17T01:49:07;4.67;;;2.00;;
3916;SDS011;1973;50.518;7.318;2023-05-17T01:51:48;4.63;;;2.13;;
3916;SDS011;1973;50.518;7.318;2023-05-17T01:54:19;4.47;;;2.20;;
3916;SDS011;1973;50.518;7.318;2023-05-17T01:56:50;6.27;;;2.10;;
3916;SDS011;1973;50.518;7.318;2023-05-17T01:59:26;5.00;;;2.20;;
3916;SDS011;1973;50.518;7.318;2023-05-17T02:01:57;4.40;;;2.50;;
3916;SDS011;1973;50.518;7.318;2023-05-17T02:04:32;4.70;;;2.00;;
3916;SDS011;1973;50.518;7.318;2023-05-17T02:06:58;5.40;;;2.93;;
3916;SDS011;1973;50.518;7.318;2023-05-17T02:09:25;2.47;;;1.80;;
3916;SDS011;1973;50.518;7.318;2023-05-17T02:11:51;3.37;;;2.10;;
3916;SDS011;1973;50.518;7.318;2023-05-17T02:14:18;4.50;;;2.53;;
3916;SDS011;1973;50.518;7.318;2023-05-17T02:16:44;6.47;;;2.50;;
3916;SDS011;1973;50.518;7.318;2023-05-17T02:19:11;7.13;;;2.20;;
3916;SDS011;1973;50.518;7.318;2023-05-17T02:21:38;5.30;;;2.00;;
3916;SDS011;1973;50.518;7.318;2023-05-17T02:24:05;3.53;;;2.17;;
3916;SDS011;1973;50.518;7.318;2023-05-17T02:26:32;2.97;;;2.13;;
3916;SDS011;1973;50.518;7.318;2023-05-17T02:28:58;9.17;;;2.30;;
3916;SDS011;1973;50.518;7.318;2023-05-17T02:31:25;6.03;;;2.20;;
3916;SDS011;1973;50.518;7.318;2023-05-17T02:33:54;4.33;;;1.83;;
3916;SDS011;1973;50.518;7.318;2023-05-17T02:36:21;4.60;;;1.90;;
3916;SDS011;1973;50.518;7.318;2023-05-17T02:38:48;7.10;;;2.20;;
3916;SDS011;1973;50.518;7.318;2023-05-17T02:41:14;4.03;;;1.70;;
3916;SDS011;1973;50.518;7.318;2023-05-17T02:43:41;6.13;;;2.10;;
3916;SDS011;1973;50.518;7.318;2023-05-17T02:46:07;5.00;;;2.47;;
3916;SDS011;1973;50.518;7.318;2023-05-17T02:48:34;6.10;;;2.17;;
3916;SDS011;1973;50.518;7.318;2023-05-17T02:51:00;5.00;;;1.87;;
3916;SDS011;1973;50.518;7.318;2023-05-17T02:53:27;3.00;;;1.80;;
3916;SDS011;1973;50.518;7.318;2023-05-17T02:55:53;6.70;;;2.40;;
3916;SDS011;1973;50.518;7.318;2023-05-17T02:58:23;5.20;;;1.90;;
3916;SDS011;1973;50.518;7.318;2023-05-17T03:00:50;4.30;;;1.77;;
3916;SDS011;1973;50.518;7.318;2023-05-17T03:03:17;4.50;;;2.00;;
3916;SDS011;1973;50.518;7.318;2023-05-17T03:05:44;10.40;;;2.50;;
3916;SDS011;1973;50.518;7.318;2023-05-17T03:08:10;9.03;;;3.10;;
3916;SDS011;1973;50.518;7.318;2023-05-17T03:10:37;6.90;;;1.83;;
3916;SDS011;1973;50.518;7.318;2023-05-17T03:13:03;4.97;;;1.60;;
3916;SDS011;1973;50.518;7.318;2023-05-17T03:15:29;8.17;;;2.40;;
3916;SDS011;1973;50.518;7.318;2023-05-17T03:17:56;4.40;;;1.90;;
3916;SDS011;1973;50.518;7.318;2023-05-17T03:20:23;5.10;;;2.30;;
3916;SDS011;1973;50.518;7.318;2023-05-17T03:22:50;12.40;;;3.60;;
3916;SDS011;1973;50.518;7.318;2023-05-17T03:25:16;4.57;;;2.30;;
3916;SDS011;1973;50.518;7.318;2023-05-17T03:27:43;5.60;;;2.57;;
3916;SDS011;1973;50.518;7.318;2023-05-17T03:30:09;10.33;;;2.57;;
3916;SDS011;1973;50.518;7.318;2023-05-17T03:32:37;5.60;;;2.27;;
3916;SDS011;1973;50.518;7.318;2023-05-17T03:35:05;5.27;;;2.20;;
3916;SDS011;1973;50.518;7.318;2023-05-17T03:37:33;7.00;;;3.00;;
3916;SDS011;1973;50.518;7.318;2023-05-17T03:39:59;3.97;;;2.20;;
3916;SDS011;1973;50.518;7.318;2023-05-17T03:42:26;5.73;;;2.67;;
3916;SDS011;1973;50.518;7.318;2023-05-17T03:44:52;7.50;;;2.43;;
3916;SDS011;1973;50.518;7.318;2023-05-17T03:47:19;2.73;;;2.20;;
3916;SDS011;1973;50.518;7.318;2023-05-17T03:49:49;6.17;;;2.40;;
3916;SDS011;1973;50.518;7.318;2023-05-17T03:52:15;10.90;;;3.30;;
3916;SDS011;1973;50.518;7.318;2023-05-17T03:54:42;4.30;;;2.47;;
3916;SDS011;1973;50.518;7.318;2023-05-17T03:57:08;5.00;;;2.90;;
3916;SDS011;1973;50.518;7.318;2023-05-17T03:59:35;4.90;;;2.43;;
3916;SDS011;1973;50.518;7.318;2023-05-17T04:02:01;3.90;;;2.70;;
3916;SDS011;1973;50.518;7.318;2023-05-17T04:04:27;4.03;;;2.50;;
3916;SDS011;1973;50.518;7.318;2023-05-17T04:06:54;6.20;;;3.30;;
3916;SDS011;1973;50.518;7.318;2023-05-17T04:09:21;7.60;;;3.60;;
3916;SDS011;1973;50.518;7.318;2023-05-17T04:11:47;6.47;;;4.17;;
3916;SDS011;1973;50.518;7.318;2023-05-17T04:14:13;4.80;;;3.10;;
3916;SDS011;1973;50.518;7.318;2023-05-17T04:16:40;4.10;;;2.50;;
3916;SDS011;1973;50.518;7.318;2023-05-17T04:19:06;6.70;;;2.30;;
3916;SDS011;1973;50.518;7.318;2023-05-17T04:21:33;4.50;;;3.10;;
3916;SDS011;1973;50.518;7.318;2023-05-17T04:24:00;7.47;;;3.17;;
3916;SDS011;1973;50.518;7.318;2023-05-17T04:26:27;5.70;;;3.53;;
3916;SDS011;1973;50.518;7.318;2023-05-17T04:28:54;5.83;;;3.40;;
3916;SDS011;1973;50.518;7.318;2023-05-17T04:31:20;7.63;;;3.70;;
3916;SDS011;1973;50.518;7.318;2023-05-17T04:33:47;6.27;;;4.07;;
3916;SDS011;1973;50.518;7.318;2023-05-17T04:36:13;7.03;;;3.33;;
3916;SDS011;1973;50.518;7.318;2023-05-17T04:38:40;4.30;;;3.20;;
3916;SDS011;1973;50.518;7.318;2023-05-17T04:41:07;7.30;;;3.40;;
3916;SDS011;1973;50.518;7.318;2023-05-17T04:43:34;5.60;;;3.50;;
3916;SDS011;1973;50.518;7.318;2023-05-17T04:46:01;8.50;;;3.80;;
3916;SDS011;1973;50.518;7.318;2023-05-17T04:48:29;5.10;;;3.97;;
3916;SDS011;1973;50.518;7.318;2023-05-17T04:51:00;5.20;;;4.70;;
3916;SDS011;1973;50.518;7.318;2023-05-17T04:53:29;9.77;;;4.70;;
3916;SDS011;1973;50.518;7.318;2023-05-17T04:55:56;6.50;;;4.47;;
3916;SDS011;1973;50.518;7.318;2023-05-17T04:58:23;8.20;;;5.40;;
3916;SDS011;1973;50.518;7.318;2023-05-17T05:00:50;6.70;;;5.70;;
3916;SDS011;1973;50.518;7.318;2023-05-17T05:03:17;9.90;;;5.50;;
3916;SDS011;1973;50.518;7.318;2023-05-17T05:05:44;15.57;;;5.63;;
3916;SDS011;1973;50.518;7.318;2023-05-17T05:08:10;6.50;;;5.23;;
3916;SDS011;1973;50.518;7.318;2023-05-17T05:10:37;8.73;;;6.27;;
3916;SDS011;1973;50.518;7.318;2023-05-17T05:13:03;11.80;;;5.53;;
3916;SDS011;1973;50.518;7.318;2023-05-17T05:15:30;8.57;;;5.50;;
3916;SDS011;1973;50.518;7.318;2023-05-17T05:17:57;13.10;;;5.00;;
3916;SDS011;1973;50.518;7.318;2023-05-17T05:20:24;13.37;;;6.00;;
3916;SDS011;1973;50.518;7.318;2023-05-17T05:22:53;9.67;;;5.80;;
3916;SDS011;1973;50.518;7.318;2023-05-17T05:25:19;10.93;;;6.20;;
3916;SDS011;1973;50.518;7.318;2023-05-17T05:27:46;12.87;;;7.50;;
3916;SDS011;1973;50.518;7.318;2023-05-17T05:30:12;12.60;;;8.30;;
3916;SDS011;1973;50.518;7.318;2023-05-17T05:32:47;14.00;;;10.20;;
3916;SDS011;1973;50.518;7.318;2023-05-17T05:35:15;14.67;;;9.77;;
3916;SDS011;1973;50.518;7.318;2023-05-17T05:37:42;19.50;;;9.90;;
3916;SDS011;1973;50.518;7.318;2023-05-17T05:40:09;18.10;;;10.50;;
3916;SDS011;1973;50.518;7.318;2023-05-17T05:42:36;19.40;;;10.10;;
3916;SDS011;1973;50.518;7.318;2023-05-17T05:45:03;16.50;;;9.87;;
3916;SDS011;1973;50.518;7.318;2023-05-17T05:47:30;22.13;;;11.03;;
3916;SDS011;1973;50.518;7.318;2023-05-17T05:49:56;17.40;;;11.70;;
3916;SDS011;1973;50.518;7.318;2023-05-17T05:52:23;18.70;;;12.20;;
3916;SDS011;1973;50.518;7.318;2023-05-17T05:54:49;28.13;;;16.43;;
3916;SDS011;1973;50.518;7.318;2023-05-17T05:57:16;20.47;;;14.90;;
3916;SDS011;1973;50.518;7.318;2023-05-17T05:59:42;20.97;;;14.70;;
3916;SDS011;1973;50.518;7.318;2023-05-17T06:02:08;24.70;;;17.07;;
3916;SDS011;1973;50.518;7.318;2023-05-17T06:04:35;28.93;;;17.90;;
3916;SDS011;1973;50.518;7.318;2023-05-17T06:07:11;28.03;;;17.50;;
3916;SDS011;1973;50.518;7.318;2023-05-17T06:09:38;29.43;;;17.60;;
3916;SDS011;1973;50.518;7.318;2023-05-17T06:12:05;23.37;;;17.13;;
3916;SDS011;1973;50.518;7.318;2023-05-17T06:14:31;26.67;;;17.23;;
3916;SDS011;1973;50.518;7.318;2023-05-17T06:16:58;30.33;;;17.20;;
3916;SDS011;1973;50.518;7.318;2023-05-17T06:19:24;25.10;;;18.20;;
3916;SDS011;1973;50.518;7.318;2023-05-17T06:21:52;27.03;;;17.57;;
3916;SDS011;1973;50.518;7.318;2023-05-17T06:24:18;29.40;;;15.73;;
3916;SDS011;1973;50.518;7.318;2023-05-17T06:26:45;24.87;;;16.83;;
3916;SDS011;1973;50.518;7.318;2023-05-17T06:29:12;22.40;;;16.20;;
3916;SDS011;1973;50.518;7.318;2023-05-17T06:31:39;23.67;;;16.70;;
3916;SDS011;1973;50.518;7.318;2023-05-17T06:34:06;27.30;;;17.83;;
3916;SDS011;1973;50.518;7.318;2023-05-17T06:36:33;25.37;;;17.97;;
3916;SDS011;1973;50.518;7.318;2023-05-17T06:39:02;27.60;;;19.20;;
3916;SDS011;1973;50.518;7.318;2023-05-17T06:41:29;33.10;;;19.10;;
3916;SDS011;1973;50.518;7.318;2023-05-17T06:43:55;31.47;;;20.07;;
3916;SDS011;1973;50.518;7.318;2023-05-17T06:46:22;29.83;;;18.63;;
3916;SDS011;1973;50.518;7.318;2023-05-17T06:48:48;27.77;;;19.80;;
3916;SDS011;1973;50.518;7.318;2023-05-17T06:51:16;32.43;;;19.87;;
3916;SDS011;1973;50.518;7.318;2023-05-17T06:53:43;27.10;;;18.87;;
3916;SDS011;1973;50.518;7.318;2023-05-17T06:56:09;36.63;;;19.70;;
3916;SDS011;1973;50.518;7.318;2023-05-17T06:58:36;26.53;;;18.67;;
3916;SDS011;1973;50.518;7.318;2023-05-17T07:01:02;30.20;;;20.20;;
3916;SDS011;1973;50.518;7.318;2023-05-17T07:03:29;30.80;;;19.53;;
3916;SDS011;1973;50.518;7.318;2023-05-17T07:05:56;28.20;;;21.03;;
3916;SDS011;1973;50.518;7.318;2023-05-17T07:08:22;32.23;;;20.40;;
3916;SDS011;1973;50.518;7.318;2023-05-17T07:10:52;30.93;;;20.97;;
3916;SDS011;1973;50.518;7.318;2023-05-17T07:13:18;34.30;;;21.50;;
3916;SDS011;1973;50.518;7.318;2023-05-17T07:15:45;35.80;;;21.30;;
3916;SDS011;1973;50.518;7.318;2023-05-17T07:18:12;35.17;;;21.77;;
3916;SDS011;1973;50.518;7.318;2023-05-17T07:20:39;34.80;;;22.90;;
3916;SDS011;1973;50.518;7.318;2023-05-17T07:23:05;33.50;;;21.33;;
3916;SDS011;1973;50.518;7.318;2023-05-17T07:25:32;40.93;;;22.53;;
3916;SDS011;1973;50.518;7.318;2023-05-17T07:27:59;38.83;;;21.83;;
3916;SDS011;1973;50.518;7.318;2023-05-17T07:30:26;35.07;;;19.93;;
3916;SDS011;1973;50.518;7.318;2023-05-17T07:32:52;37.97;;;22.33;;
3916;SDS011;1973;50.518;7.318;2023-05-17T07:35:19;46.83;;;22.70;;
3916;SDS011;1973;50.518;7.318;2023-05-17T07:37:47;29.97;;;21.43;;
3916;SDS011;1973;50.518;7.318;2023-05-17T07:40:13;34.50;;;21.33;;
3916;SDS011;1973;50.518;7.318;2023-05-17T07:42:40;36.27;;;21.40;;
3916;SDS011;1973;50.518;7.318;2023-05-17T07:45:07;39.77;;;23.60;;
3916;SDS011;1973;50.518;7.318;2023-05-17T07:47:34;35.03;;;21.87;;
3916;SDS011;1973;50.518;7.318;2023-05-17T07:50:01;30.03;;;21.17;;
3916;SDS011;1973;50.518;7.318;2023-05-17T07:52:29;28.57;;;20.50;;
3916;SDS011;1973;50.518;7.318;2023-05-17T07:54:55;37.23;;;22.77;;
3916;SDS011;1973;50.518;7.318;2023-05-17T07:57:22;41.50;;;22.53;;
3916;SDS011;1973;50.518;7.318;2023-05-17T07:59:48;30.57;;;21.93;;
3916;SDS011;1973;50.518;7.318;2023-05-17T08:02:15;27.00;;;21.80;;
3916;SDS011;1973;50.518;7.318;2023-05-17T08:04:41;33.00;;;22.50;;
3916;SDS011;1973;50.518;7.318;2023-05-17T08:07:08;30.57;;;21.80;;
3916;SDS011;1973;50.518;7.318;2023-05-17T08:09:34;33.53;;;23.17;;
3916;SDS011;1973;50.518;7.318;2023-05-17T08:12:01;33.33;;;21.40;;
3916;SDS011;1973;50.518;7.318;2023-05-17T08:14:27;30.53;;;21.77;;
3916;SDS011;1973;50.518;7.318;2023-05-17T08:16:54;25.70;;;20.17;;
3916;SDS011;1973;50.518;7.318;2023-05-17T08:19:20;29.93;;;19.73;;
3916;SDS011;1973;50.518;7.318;2023-05-17T08:21:47;26.97;;;19.10;;
3916;SDS011;1973;50.518;7.318;2023-05-17T08:24:14;22.83;;;17.03;;
3916;SDS011;1973;50.518;7.318;2023-05-17T08:26:41;26.37;;;18.50;;
3916;SDS011;1973;50.518;7.318;2023-05-17T08:29:07;27.60;;;18.77;;
3916;SDS011;1973;50.518;7.318;2023-05-17T08:31:36;27.00;;;16.47;;
3916;SDS011;1973;50.518;7.318;2023-05-17T08:34:03;26.77;;;16.47;;
3916;SDS011;1973;50.518;7.318;2023-05-17T08:36:29;20.10;;;15.37;;
3916;SDS011;1973;50.518;7.318;2023-05-17T08:38:56;20.13;;;12.83;;
3916;SDS011;1973;50.518;7.318;2023-05-17T08:41:23;21.90;;;13.40;;
3916;SDS011;1973;50.518;7.318;2023-05-17T08:43:49;21.43;;;12.90;;
3916;SDS011;1973;50.518;7.318;2023-05-17T08:46:17;21.87;;;11.70;;
3916;SDS011;1973;50.518;7.318;2023-05-17T08:48:48;20.00;;;12.13;;
3916;SDS011;1973;50.518;7.318;2023-05-17T08:51:18;16.50;;;10.40;;
3916;SDS011;1973;50.518;7.318;2023-05-17T08:53:46;18.70;;;11.20;;
3916;SDS011;1973;50.518;7.318;2023-05-17T08:56:14;15.83;;;11.13;;
3916;SDS011;1973;50.518;7.318;2023-05-17T08:58:42;16.80;;;10.97;;
3916;SDS011;1973;50.518;7.318;2023-05-17T09:01:22;18.53;;;11.00;;
3916;SDS011;1973;50.518;7.318;2023-05-17T09:03:51;12.70;;;9.27;;
3916;SDS011;1973;50.518;7.318;2023-05-17T09:06:21;15.00;;;9.60;;
3916;SDS011;1973;50.518;7.318;2023-05-17T09:08:49;11.00;;;7.53;;
3916;SDS011;1973;50.518;7.318;2023-05-17T09:11:29;12.23;;;7.63;;
3916;SDS011;1973;50.518;7.318;2023-05-17T09:14:03;13.27;;;7.70;;
3916;SDS011;1973;50.518;7.318;2023-05-17T09:16:31;13.40;;;6.40;;
3916;SDS011;1973;50.518;7.318;2023-05-17T09:19:00;11.77;;;6.57;;
3916;SDS011;1973;50.518;7.318;2023-05-17T09:21:29;16.00;;;6.37;;
3916;SDS011;1973;50.518;7.318;2023-05-17T09:23:57;12.37;;;6.80;;
3916;SDS011;1973;50.518;7.318;2023-05-17T09:26:40;10.27;;;6.20;;
3916;SDS011;1973;50.518;7.318;2023-05-17T09:29:09;8.97;;;5.67;;
3916;SDS011;1973;50.518;7.318;2023-05-17T09:31:36;11.40;;;6.83;;
3916;SDS011;1973;50.518;7.318;2023-05-17T09:34:03;9.90;;;5.73;;
3916;SDS011;1973;50.518;7.318;2023-05-17T09:36:32;8.50;;;5.80;;
3916;SDS011;1973;50.518;7.318;2023-05-17T09:39:02;9.47;;;5.60;;
3916;SDS011;1973;50.518;7.318;2023-05-17T09:41:45;12.23;;;4.73;;
3916;SDS011;1973;50.518;7.318;2023-05-17T09:44:13;10.33;;;5.27;;
3916;SDS011;1973;50.518;7.318;2023-05-17T09:46:44;7.57;;;4.33;;
3916;SDS011;1973;50.518;7.318;2023-05-17T09:49:13;9.37;;;5.20;;
3916;SDS011;1973;50.518;7.318;2023-05-17T09:51:44;11.67;;;5.60;;
3916;SDS011;1973;50.518;7.318;2023-05-17T09:54:12;16.63;;;5.40;;
3916;SDS011;1973;50.518;7.318;2023-05-17T09:56:39;10.77;;;5.90;;
3916;SDS011;1973;50.518;7.318;2023-05-17T09:59:13;9.00;;;4.80;;
3916;SDS011;1973;50.518;7.318;2023-05-17T10:01:41;8.60;;;4.00;;
3916;SDS011;1973;50.518;7.318;2023-05-17T10:04:10;6.80;;;4.20;;
3916;SDS011;1973;50.518;7.318;2023-05-17T10:06:38;7.30;;;4.10;;
3916;SDS011;1973;50.518;7.318;2023-05-17T10:09:11;10.20;;;4.60;;
3916;SDS011;1973;50.518;7.318;2023-05-17T10:11:40;9.30;;;3.80;;
3916;SDS011;1973;50.518;7.318;2023-05-17T10:14:26;10.47;;;3.30;;
3916;SDS011;1973;50.518;7.318;2023-05-17T10:16:57;9.87;;;2.90;;
3916;SDS011;1973;50.518;7.318;2023-05-17T10:19:24;8.13;;;3.53;;
3916;SDS011;1973;50.518;7.318;2023-05-17T10:21:51;7.23;;;2.67;;
3916;SDS011;1973;50.518;7.318;2023-05-17T10:24:19;6.00;;;3.00;;
3916;SDS011;1973;50.518;7.318;2023-05-17T10:26:49;7.50;;;3.00;;
3916;SDS011;1973;50.518;7.318;2023-05-17T10:29:16;6.47;;;2.63;;
3916;SDS011;1973;50.518;7.318;2023-05-17T10:31:46;9.70;;;2.90;;
3916;SDS011;1973;50.518;7.318;2023-05-17T10:34:14;9.17;;;2.40;;
3916;SDS011;1973;50.518;7.318;2023-05-17T10:36:45;7.60;;;2.63;;
3916;SDS011;1973;50.518;7.318;2023-05-17T10:39:14;6.40;;;2.57;;
3916;SDS011;1973;50.518;7.318;2023-05-17T10:41:42;4.60;;;2.50;;
3916;SDS011;1973;50.518;7.318;2023-05-17T10:44:12;7.33;;;2.60;;
3916;SDS011;1973;50.518;7.318;2023-05-17T10:46:49;6.33;;;2.33;;
3916;SDS011;1973;50.518;7.318;2023-05-17T10:49:17;6.23;;;2.20;;
3916;SDS011;1973;50.518;7.318;2023-05-17T10:51:49;6.67;;;1.90;;
3916;SDS011;1973;50.518;7.318;2023-05-17T10:54:16;8.47;;;2.70;;
3916;SDS011;1973;50.518;7.318;2023-05-17T11:01:53;8.00;;;2.60;;
3916;SDS011;1973;50.518;7.318;2023-05-17T11:04:23;7.80;;;3.67;;
3916;SDS011;1973;50.518;7.318;2023-05-17T11:09:43;12.17;;;6.47;;
3916;SDS011;1973;50.518;7.318;2023-05-17T11:12:12;9.73;;;3.33;;
3916;SDS011;1973;50.518;7.318;2023-05-17T11:14:52;8.10;;;2.83;;
3916;SDS011;1973;50.518;7.318;2023-05-17T11:17:20;5.17;;;2.83;;
3916;SDS011;1973;50.518;7.318;2023-05-17T11:22:54;6.00;;;2.13;;
3916;SDS011;1973;50.518;7.318;2023-05-17T11:25:21;5.27;;;2.20;;
3916;SDS011;1973;50.518;7.318;2023-05-17T11:27:48;6.60;;;2.17;;
3916;SDS011;1973;50.518;7.318;2023-05-17T11:30:19;6.43;;;2.23;;
3916;SDS011;1973;50.518;7.318;2023-05-17T11:32:49;5.93;;;2.07;;
3916;SDS011;1973;50.518;7.318;2023-05-17T11:35:17;11.90;;;3.07;;
3916;SDS011;1973;50.518;7.318;2023-05-17T11:37:44;6.00;;;2.67;;
3916;SDS011;1973;50.518;7.318;2023-05-17T11:40:11;4.67;;;2.10;;
3916;SDS011;1973;50.518;7.318;2023-05-17T11:42:40;8.43;;;2.57;;
3916;SDS011;1973;50.518;7.318;2023-05-17T11:45:07;4.77;;;2.17;;
3916;SDS011;1973;50.518;7.318;2023-05-17T11:47:34;8.23;;;3.03;;
3916;SDS011;1973;50.518;7.318;2023-05-17T11:50:04;5.93;;;1.70;;
3916;SDS011;1973;50.518;7.318;2023-05-17T11:52:32;5.93;;;2.33;;
3916;SDS011;1973;50.518;7.318;2023-05-17T11:54:59;6.07;;;2.30;;
3916;SDS011;1973;50.518;7.318;2023-05-17T11:57:29;7.00;;;2.77;;
3916;SDS011;1973;50.518;7.318;2023-05-17T11:59:57;6.47;;;2.47;;
3916;SDS011;1973;50.518;7.318;2023-05-17T12:02:29;8.63;;;2.40;;
3916;SDS011;1973;50.518;7.318;2023-05-17T12:04:56;8.03;;;2.97;;
3916;SDS011;1973;50.518;7.318;2023-05-17T12:07:24;7.50;;;2.80;;
3916;SDS011;1973;50.518;7.318;2023-05-17T12:09:51;9.10;;;2.90;;
3916;SDS011;1973;50.518;7.318;2023-05-17T12:12:18;5.80;;;2.20;;
3916;SDS011;1973;50.518;7.318;2023-05-17T12:14:47;9.87;;;3.20;;
3916;SDS011;1973;50.518;7.318;2023-05-17T12:17:20;6.33;;;2.63;;
3916;SDS011;1973;50.518;7.318;2023-05-17T12:19:52;9.07;;;2.80;;
3916;SDS011;1973;50.518;7.318;2023-05-17T12:22:19;8.70;;;3.10;;
3916;SDS011;1973;50.518;7.318;2023-05-17T12:24:46;4.93;;;2.77;;
3916;SDS011;1973;50.518;7.318;2023-05-17T12:27:13;6.23;;;3.03;;
3916;SDS011;1973;50.518;7.318;2023-05-17T12:29:39;7.03;;;2.33;;
3916;SDS011;1973;50.518;7.318;2023-05-17T12:32:06;10.07;;;2.97;;
3916;SDS011;1973;50.518;7.318;2023-05-17T12:34:35;4.60;;;2.70;;
3916;SDS011;1973;50.518;7.318;2023-05-17T12:37:02;7.03;;;2.93;;
3916;SDS011;1973;50.518;7.318;2023-05-17T12:39:30;16.17;;;4.13;;
3916;SDS011;1973;50.518;7.318;2023-05-17T12:41:56;5.30;;;3.00;;
3916;SDS011;1973;50.518;7.318;2023-05-17T12:44:24;6.90;;;3.00;;
3916;SDS011;1973;50.518;7.318;2023-05-17T12:46:50;6.83;;;2.87;;
3916;SDS011;1973;50.518;7.318;2023-05-17T12:49:21;9.80;;;3.00;;
3916;SDS011;1973;50.518;7.318;2023-05-17T12:51:48;7.70;;;2.20;;
3916;SDS011;1973;50.518;7.318;2023-05-17T12:54:24;7.13;;;3.20;;
3916;SDS011;1973;50.518;7.318;2023-05-17T12:56:54;6.00;;;2.07;;
3916;SDS011;1973;50.518;7.318;2023-05-17T12:59:21;8.30;;;2.80;;
3916;SDS011;1973;50.518;7.318;2023-05-17T13:01:51;4.93;;;2.10;;
3916;SDS011;1973;50.518;7.318;2023-05-17T13:04:27;6.37;;;2.47;;
3916;SDS011;1973;50.518;7.318;2023-05-17T13:07:00;5.03;;;2.13;;
3916;SDS011;1973;50.518;7.318;2023-05-17T13:09:28;6.43;;;3.10;;
3916;SDS011;1973;50.518;7.318;2023-05-17T13:11:59;5.83;;;2.17;;
3916;SDS011;1973;50.518;7.318;2023-05-17T13:14:42;6.70;;;2.80;;
3916;SDS011;1973;50.518;7.318;2023-05-17T13:17:18;4.30;;;2.13;;
3916;SDS011;1973;50.518;7.318;2023-05-17T13:19:50;6.80;;;3.43;;
3916;SDS011;1973;50.518;7.318;2023-05-17T13:22:17;5.37;;;2.00;;
3916;SDS011;1973;50.518;7.318;2023-05-17T13:24:44;5.87;;;2.00;;
3916;SDS011;1973;50.518;7.318;2023-05-17T13:27:11;9.77;;;2.47;;
3916;SDS011;1973;50.518;7.318;2023-05-17T13:29:39;5.77;;;2.50;;
3916;SDS011;1973;50.518;7.318;2023-05-17T13:32:08;6.30;;;2.40;;
3916;SDS011;1973;50.518;7.318;2023-05-17T13:34:39;6.70;;;2.37;;
3916;SDS011;1973;50.518;7.318;2023-05-17T13:37:06;6.80;;;2.03;;
3916;SDS011;1973;50.518;7.318;2023-05-17T13:39:37;5.30;;;2.40;;
3916;SDS011;1973;50.518;7.318;2023-05-17T13:42:04;6.53;;;2.30;;
3916;SDS011;1973;50.518;7.318;2023-05-17T13:44:31;6.27;;;2.40;;
3916;SDS011;1973;50.518;7.318;2023-05-17T13:46:57;6.07;;;2.30;;
3916;SDS011;1973;50.518;7.318;2023-05-17T13:49:24;6.17;;;2.00;;
3916;SDS011;1973;50.518;7.318;2023-05-17T13:51:51;5.50;;;2.50;;
3916;SDS011;1973;50.518;7.318;2023-05-17T13:54:18;9.70;;;2.30;;
3916;SDS011;1973;50.518;7.318;2023-05-17T13:56:47;9.60;;;2.60;;
3916;SDS011;1973;50.518;7.318;2023-05-17T13:59:13;9.50;;;2.90;;
3916;SDS011;1973;50.518;7.318;2023-05-17T14:01:40;7.73;;;2.93;;
3916;SDS011;1973;50.518;7.318;2023-05-17T14:04:07;8.30;;;3.20;;
3916;SDS011;1973;50.518;7.318;2023-05-17T14:06:33;7.63;;;2.53;;
3916;SDS011;1973;50.518;7.318;2023-05-17T14:09:00;8.67;;;2.80;;
3916;SDS011;1973;50.518;7.318;2023-05-17T14:11:26;6.80;;;2.50;;
3916;SDS011;1973;50.518;7.318;2023-05-17T14:13:53;7.20;;;2.53;;
3916;SDS011;1973;50.518;7.318;2023-05-17T14:16:19;5.73;;;2.53;;
3916;SDS011;1973;50.518;7.318;2023-05-17T14:18:48;9.67;;;3.37;;
3916;SDS011;1973;50.518;7.318;2023-05-17T14:21:15;7.27;;;2.53;;
3916;SDS011;1973;50.518;7.318;2023-05-17T14:23:41;5.30;;;2.20;;
3916;SDS011;1973;50.518;7.318;2023-05-17T14:26:08;5.03;;;2.77;;
3916;SDS011;1973;50.518;7.318;2023-05-17T14:28:35;7.20;;;3.10;;
3916;SDS011;1973;50.518;7.318;2023-05-17T14:31:07;5.83;;;2.70;;
3916;SDS011;1973;50.518;7.318;2023-05-17T14:33:34;7.63;;;2.97;;
3916;SDS011;1973;50.518;7.318;2023-05-17T14:36:01;9.23;;;2.67;;
3916;SDS011;1973;50.518;7.318;2023-05-17T14:38:29;7.00;;;2.87;;
3916;SDS011;1973;50.518;7.318;2023-05-17T14:40:56;7.90;;;3.00;;
3916;SDS011;1973;50.518;7.318;2023-05-17T14:43:24;6.00;;;2.40;;
3916;SDS011;1973;50.518;7.318;2023-05-17T14:45:50;6.50;;;2.40;;
3916;SDS011;1973;50.518;7.318;2023-05-17T14:48:17;11.63;;;2.90;;
3916;SDS011;1973;50.518;7.318;2023-05-17T14:50:43;9.10;;;3.80;;
3916;SDS011;1973;50.518;7.318;2023-05-17T14:53:10;6.10;;;2.60;;
3916;SDS011;1973;50.518;7.318;2023-05-17T14:55:37;8.13;;;3.10;;
3916;SDS011;1973;50.518;7.318;2023-05-17T14:58:03;5.13;;;2.53;;
3916;SDS011;1973;50.518;7.318;2023-05-17T15:00:30;4.90;;;2.23;;
3916;SDS011;1973;50.518;7.318;2023-05-17T15:02:56;7.27;;;3.33;;
3916;SDS011;1973;50.518;7.318;2023-05-17T15:05:23;8.73;;;2.80;;
3916;SDS011;1973;50.518;7.318;2023-05-17T15:07:51;7.00;;;2.53;;
3916;SDS011;1973;50.518;7.318;2023-05-17T15:10:17;6.20;;;2.40;;
3916;SDS011;1973;50.518;7.318;2023-05-17T15:12:44;9.80;;;3.77;;
3916;SDS011;1973;50.518;7.318;2023-05-17T15:15:11;5.30;;;3.20;;
3916;SDS011;1973;50.518;7.318;2023-05-17T15:17:38;8.77;;;4.10;;
3916;SDS011;1973;50.518;7.318;2023-05-17T15:20:05;6.63;;;2.20;;
3916;SDS011;1973;50.518;7.318;2023-05-17T15:22:32;6.67;;;3.50;;
3916;SDS011;1973;50.518;7.318;2023-05-17T15:24:59;7.70;;;2.90;;
3916;SDS011;1973;50.518;7.318;2023-05-17T15:27:25;8.37;;;2.60;;
3916;SDS011;1973;50.518;7.318;2023-05-17T15:29:52;10.77;;;3.77;;